createdAt,value
2019-03-13T00:01:05.780Z,4.422302
2019-03-13T00:06:29.070Z,4.472656
2019-03-13T00:11:51.763Z,4.492798
2019-03-13T00:17:14.518Z,4.512939
2019-03-13T00:22:37.179Z,4.472656
2019-03-13T00:28:00.584Z,4.573364
2019-03-13T00:33:23.424Z,4.613647
2019-03-13T00:38:46.088Z,4.512939
2019-03-13T00:44:08.947Z,4.512939
2019-03-13T00:49:31.930Z,4.492798
2019-03-13T00:54:54.648Z,4.502869
2019-03-13T01:00:17.427Z,4.543152
2019-03-13T01:05:40.202Z,4.573364
2019-03-13T01:11:02.936Z,4.623718
2019-03-13T01:16:25.651Z,4.64386
2019-03-13T01:21:48.571Z,4.653931
2019-03-13T01:27:11.352Z,4.674072
2019-03-13T01:32:33.997Z,4.653931
2019-03-13T01:37:56.675Z,4.674072
2019-03-13T01:43:19.377Z,4.724426
2019-03-13T01:48:42.220Z,4.724426
2019-03-13T01:54:05.641Z,4.714355
2019-03-13T01:59:28.729Z,4.794922
2019-03-13T02:04:52.121Z,4.855347
2019-03-13T02:10:19.290Z,4.855347
2019-03-13T02:15:41.933Z,4.825134
2019-03-13T02:21:04.709Z,4.855347
2019-03-13T02:26:28.257Z,4.794922
2019-03-13T02:31:51.783Z,4.674072
2019-03-13T02:37:14.496Z,4.744568
2019-03-13T02:42:37.138Z,4.825134
2019-03-13T02:48:00.466Z,4.714355
2019-03-13T02:53:24.023Z,4.77478
2019-03-13T02:58:46.747Z,4.865417
2019-03-13T03:04:09.548Z,4.855347
2019-03-13T03:09:32.275Z,4.935913
2019-03-13T03:14:54.852Z,4.986267
2019-03-13T03:20:19.979Z,4.986267
2019-03-13T03:25:42.621Z,5.056763
2019-03-13T03:31:05.273Z,5.076904
2019-03-13T03:36:27.881Z,5.1474
2019-03-13T03:41:51.363Z,5.288391
2019-03-13T03:47:14.197Z,5.258179
2019-03-13T03:52:37.017Z,5.288391
2019-03-13T03:57:59.715Z,5.439453
2019-03-13T04:03:22.413Z,5.479736
2019-03-13T04:08:45.357Z,5.509949
2019-03-13T04:14:08.071Z,5.479736
2019-03-13T04:19:30.702Z,5.489807
2019-03-13T04:24:53.475Z,5.489807
2019-03-13T04:30:16.141Z,5.550232
2019-03-13T04:35:38.741Z,5.590515
2019-03-13T04:41:01.467Z,5.600586
2019-03-13T04:46:24.366Z,5.580444
2019-03-13T04:51:47.053Z,5.550232
2019-03-13T04:57:09.667Z,5.580444
2019-03-13T05:02:32.359Z,5.560303
2019-03-13T05:07:55.220Z,5.560303
2019-03-13T05:13:17.954Z,5.630798
2019-03-13T05:18:40.673Z,5.620728
2019-03-13T05:24:03.265Z,5.590515
2019-03-13T05:29:25.943Z,5.701294
2019-03-13T05:34:48.587Z,5.630798
2019-03-13T05:40:11.321Z,5.65094
2019-03-13T05:45:34.008Z,5.691223
2019-03-13T05:50:56.717Z,5.661011
2019-03-13T05:56:19.424Z,5.731506
2019-03-13T06:01:42.205Z,5.77179
2019-03-13T06:07:04.934Z,5.751648
2019-03-13T06:12:27.676Z,5.842285
2019-03-13T06:17:50.437Z,5.852356
2019-03-13T06:23:13.354Z,5.872498
2019-03-13T06:28:39.406Z,5.922852
2019-03-13T06:34:02.035Z,5.802002
2019-03-13T06:39:25.831Z,5.741577
2019-03-13T06:44:50.499Z,5.832214
2019-03-13T06:50:13.215Z,5.661011
2019-03-13T06:55:35.878Z,5.620728
2019-03-13T07:00:58.618Z,5.77179
2019-03-13T07:06:21.269Z,5.832214
2019-03-13T07:11:43.852Z,5.842285
2019-03-13T07:17:06.570Z,5.90271
2019-03-13T07:22:29.268Z,5.953064
2019-03-13T07:27:52.956Z,6.013489
2019-03-13T07:33:17.459Z,5.993347
2019-03-13T07:38:40.146Z,5.983276
2019-03-13T07:44:02.880Z,6.104126
2019-03-13T07:49:26.302Z,6.144409
2019-03-13T07:54:49.030Z,6.194763
2019-03-13T08:00:13.787Z,6.214905
2019-03-13T08:05:37.302Z,6.235046
2019-03-13T08:11:00.196Z,6.245117
2019-03-13T08:16:23.839Z,6.355896
2019-03-13T08:21:46.691Z,6.396179
2019-03-13T08:27:09.412Z,6.5271
2019-03-13T08:32:32.063Z,6.53717
2019-03-13T08:37:55.874Z,6.627808
2019-03-13T08:43:18.574Z,6.577454
2019-03-13T08:48:41.220Z,6.547241
2019-03-13T08:54:03.842Z,6.577454
2019-03-13T08:59:26.516Z,6.678162
2019-03-13T09:04:49.311Z,6.678162
2019-03-13T09:10:12.026Z,6.688232
2019-03-13T09:15:35.685Z,6.748657
2019-03-13T09:20:58.821Z,6.809082
2019-03-13T09:26:22.781Z,6.748657
2019-03-13T09:31:45.515Z,6.627808
2019-03-13T09:37:08.121Z,6.456604
2019-03-13T09:42:30.800Z,6.5271
2019-03-13T09:47:54.091Z,6.456604
2019-03-13T09:53:16.768Z,6.355896
2019-03-13T09:58:40.469Z,6.265259
2019-03-13T10:04:03.217Z,6.265259
2019-03-13T10:09:26.030Z,6.245117
2019-03-13T10:14:48.767Z,6.083984
2019-03-13T10:20:11.342Z,5.882568
2019-03-13T10:25:34.127Z,5.90271
2019-03-13T10:30:57.085Z,5.90271
2019-03-13T10:36:30.716Z,6.013489
2019-03-13T10:41:53.783Z,6.013489
2019-03-13T10:47:16.692Z,6.194763
2019-03-13T10:52:40.412Z,6.265259
2019-03-13T10:58:03.107Z,6.345825
2019-03-13T11:03:27.997Z,6.506958
2019-03-13T11:08:50.758Z,6.637878
2019-03-13T11:14:15.702Z,6.718445
2019-03-13T11:19:37.033Z,6.78894
2019-03-13T11:24:59.789Z,6.728516
2019-03-13T11:30:22.543Z,6.728516
2019-03-13T11:35:46.190Z,6.758728
2019-03-13T11:41:09.005Z,6.708374
2019-03-13T11:46:31.638Z,6.627808
2019-03-13T11:51:54.410Z,6.708374
2019-03-13T11:57:18.069Z,6.496887
2019-03-13T12:02:41.167Z,6.265259
2019-03-13T12:08:04.903Z,6.265259
2019-03-13T12:13:27.737Z,6.214905
2019-03-13T12:18:51.185Z,6.03363
2019-03-13T12:24:15.057Z,5.983276
2019-03-13T12:29:38.481Z,5.882568
2019-03-13T12:35:01.260Z,5.832214
2019-03-13T12:40:23.974Z,5.812073
2019-03-13T12:45:46.682Z,5.802002
2019-03-13T12:51:09.443Z,5.751648
2019-03-13T12:56:32.226Z,5.77179
2019-03-13T13:01:55.860Z,5.620728
2019-03-13T13:07:18.722Z,5.52002
2019-03-13T13:12:41.428Z,5.419312
2019-03-13T13:18:04.273Z,5.318604
2019-03-13T13:23:26.994Z,5.328674
2019-03-13T13:28:49.599Z,5.39917
2019-03-13T13:34:12.407Z,5.489807
2019-03-13T13:39:35.746Z,5.52002
2019-03-13T13:45:08.525Z,5.479736
2019-03-13T13:56:38.107Z,5.630798
2019-03-13T14:02:10.822Z,5.630798
2019-03-13T14:07:45.703Z,5.661011
2019-03-13T14:13:19.414Z,5.77179
2019-03-13T14:18:53.666Z,5.77179
2019-03-13T14:24:29.162Z,5.77179
2019-03-13T14:30:02.274Z,6.013489
2019-03-13T14:35:34.313Z,6.27533
2019-03-13T14:47:02.062Z,6.315613
2019-03-13T14:52:34.855Z,6.376038
2019-03-13T14:58:06.976Z,6.174622
2019-03-13T15:03:41.732Z,6.083984
2019-03-13T15:09:15.384Z,6.104126
2019-03-13T15:14:48.444Z,6.627808
2019-03-13T15:20:21.224Z,6.577454
2019-03-13T15:25:54.310Z,6.53717
2019-03-13T15:31:28.630Z,6.567383
2019-03-13T15:37:03.110Z,6.990356
2019-03-13T15:42:37.484Z,6.77887
2019-03-13T15:48:00.907Z,6.637878
2019-03-13T15:53:24.753Z,6.748657
2019-03-13T15:58:57.570Z,6.597595
2019-03-13T16:04:30.828Z,6.456604
2019-03-13T16:10:03.789Z,6.627808
2019-03-13T16:15:35.401Z,6.637878
2019-03-13T16:20:59.138Z,6.567383
2019-03-13T16:26:21.815Z,6.496887
2019-03-13T16:31:44.506Z,6.496887
2019-03-13T16:37:07.310Z,6.456604
2019-03-13T16:42:30.125Z,6.446533
2019-03-13T16:47:52.834Z,6.5271
2019-03-13T16:53:15.653Z,6.577454
2019-03-13T16:58:38.373Z,6.5271
2019-03-13T17:04:03.174Z,6.5271
2019-03-13T17:09:25.903Z,6.577454
2019-03-13T17:14:48.899Z,6.607666
2019-03-13T17:20:11.568Z,6.607666
2019-03-13T17:25:34.337Z,6.728516
2019-03-13T17:30:57.645Z,6.728516
2019-03-13T17:36:20.372Z,6.748657
2019-03-13T17:41:43.600Z,6.688232
2019-03-13T17:47:06.399Z,6.5271
2019-03-13T17:52:29.179Z,6.5271
2019-03-13T17:57:52.135Z,6.627808
2019-03-13T18:03:14.954Z,6.718445
2019-03-13T18:08:37.721Z,7.010498
2019-03-13T18:14:00.590Z,7.080994
2019-03-13T18:19:32.815Z,6.970215
2019-03-13T18:24:54.751Z,6.940002
2019-03-13T18:30:27.634Z,6.960144
2019-03-13T18:35:50.760Z,7.000427
2019-03-13T18:41:14.285Z,6.960144
2019-03-13T18:46:38.098Z,6.77887
2019-03-13T18:52:01.116Z,6.78894
2019-03-13T18:57:34.446Z,6.869507
2019-03-13T19:02:57.969Z,6.899719
2019-03-13T19:08:20.899Z,6.90979
2019-03-13T19:13:58.060Z,6.970215
2019-03-13T19:19:18.980Z,7.050781
2019-03-13T19:24:43.097Z,7.070923
2019-03-13T19:30:06.351Z,6.970215
2019-03-13T19:35:39.562Z,7.050781
2019-03-13T19:41:02.778Z,6.960144
2019-03-13T19:46:26.240Z,7.091064
2019-03-13T19:51:49.518Z,6.990356
2019-03-13T19:57:13.475Z,6.889648
2019-03-13T20:02:38.063Z,6.829224
2019-03-13T20:08:03.797Z,6.859436
2019-03-13T20:13:28.481Z,6.819153
2019-03-13T20:18:51.505Z,6.688232
2019-03-13T20:24:14.324Z,6.607666
2019-03-13T20:29:38.048Z,6.53717
2019-03-13T20:35:01.131Z,6.5271
2019-03-13T20:40:25.639Z,6.446533
2019-03-13T20:45:50.404Z,6.476746
2019-03-13T20:51:14.387Z,6.416321
2019-03-13T20:56:37.471Z,6.345825
2019-03-13T21:02:01.276Z,6.456604
2019-03-13T21:07:24.459Z,6.506958
2019-03-13T21:12:48.121Z,6.5271
2019-03-13T21:18:11.641Z,6.718445
2019-03-13T21:23:35.872Z,6.758728
2019-03-13T21:28:58.991Z,6.688232
2019-03-13T21:34:21.850Z,6.748657
2019-03-13T21:39:44.943Z,6.829224
2019-03-13T21:45:21.132Z,7.000427
2019-03-13T21:50:32.772Z,6.90979
2019-03-13T21:55:56.411Z,6.940002
2019-03-13T22:01:20.614Z,6.90979
2019-03-13T22:06:42.841Z,6.78894
2019-03-13T22:12:05.800Z,6.728516
2019-03-13T22:17:29.043Z,6.869507
2019-03-13T22:22:52.081Z,6.960144
2019-03-13T22:28:15.017Z,6.90979
2019-03-13T22:33:37.780Z,7.111206
2019-03-13T22:39:00.603Z,7.111206
2019-03-13T22:44:23.265Z,7.010498
2019-03-13T22:49:46.914Z,6.859436
2019-03-13T22:55:09.554Z,6.819153
2019-03-13T23:00:32.298Z,6.748657
2019-03-13T23:05:54.914Z,6.748657
2019-03-13T23:11:18.186Z,6.748657
2019-03-13T23:16:40.847Z,6.819153
2019-03-13T23:22:05.528Z,6.899719
2019-03-13T23:27:28.768Z,6.899719
2019-03-13T23:32:51.528Z,6.869507
2019-03-13T23:38:15.050Z,6.758728
2019-03-13T23:43:37.743Z,6.647949
2019-03-13T23:49:00.409Z,6.446533
2019-03-13T23:54:23.668Z,6.345825
2019-03-13T23:59:46.366Z,6.315613
